sensor_id;sensor_type;location;lat;lon;timestamp;temperature;humidity
29725;DHT22;16636;48.394;15.468;2022-12-29T00:01:35;1.20;99.90
29725;DHT22;16636;48.394;15.468;2022-12-29T00:04:01;1.20;99.90
29725;DHT22;16636;48.394;15.468;2022-12-29T00:06:28;1.10;99.90
29725;DHT22;16636;48.394;15.468;2022-12-29T00:08:54;1.10;99.90
29725;DHT22;16636;48.394;15.468;2022-12-29T00:11:23;1.10;99.90
29725;DHT22;16636;48.394;15.468;2022-12-29T00:13:50;1.10;99.90
29725;DHT22;16636;48.394;15.468;2022-12-29T00:16:35;1.20;99.90
29725;DHT22;16636;48.394;15.468;2022-12-29T00:19:03;1.20;99.90
29725;DHT22;16636;48.394;15.468;2022-12-29T00:21:29;1.10;99.90
29725;DHT22;16636;48.394;15.468;2022-12-29T00:24:21;1.10;99.90
29725;DHT22;16636;48.394;15.468;2022-12-29T00:29:51;1.10;99.90
29725;DHT22;16636;48.394;15.468;2022-12-29T00:32:35;1.00;99.90
29725;DHT22;16636;48.394;15.468;2022-12-29T00:35:44;1.00;99.90
29725;DHT22;16636;48.394;15.468;2022-12-29T00:38:14;1.10;99.90
29725;DHT22;16636;48.394;15.468;2022-12-29T00:40:59;1.10;99.90
29725;DHT22;16636;48.394;15.468;2022-12-29T00:43:43;1.10;99.90
29725;DHT22;16636;48.394;15.468;2022-12-29T00:46:28;1.00;99.90
29725;DHT22;16636;48.394;15.468;2022-12-29T00:48:54;1.00;99.90
29725;DHT22;16636;48.394;15.468;2022-12-29T00:51:39;1.00;99.90
29725;DHT22;16636;48.394;15.468;2022-12-29T00:54:05;1.00;99.90
29725;DHT22;16636;48.394;15.468;2022-12-29T00:56:31;1.00;99.90
29725;DHT22;16636;48.394;15.468;2022-12-29T00:59:06;1.00;99.90
29725;DHT22;16636;48.394;15.468;2022-12-29T01:01:33;1.00;99.90
29725;DHT22;16636;48.394;15.468;2022-12-29T01:03:59;1.00;99.90
29725;DHT22;16636;48.394;15.468;2022-12-29T01:06:25;1.00;99.90
29725;DHT22;16636;48.394;15.468;2022-12-29T01:08:52;0.90;99.90
29725;DHT22;16636;48.394;15.468;2022-12-29T01:11:38;0.90;99.90
29725;DHT22;16636;48.394;15.468;2022-12-29T01:14:06;0.90;99.90
29725;DHT22;16636;48.394;15.468;2022-12-29T01:16:32;0.90;99.90
29725;DHT22;16636;48.394;15.468;2022-12-29T01:18:59;0.90;99.90
29725;DHT22;16636;48.394;15.468;2022-12-29T01:21:26;0.80;99.90
29725;DHT22;16636;48.394;15.468;2022-12-29T01:23:52;0.80;99.90
29725;DHT22;16636;48.394;15.468;2022-12-29T01:26:19;0.80;99.90
29725;DHT22;16636;48.394;15.468;2022-12-29T01:28:46;0.80;99.90
29725;DHT22;16636;48.394;15.468;2022-12-29T01:31:14;0.70;99.90
29725;DHT22;16636;48.394;15.468;2022-12-29T01:33:40;0.70;99.90
29725;DHT22;16636;48.394;15.468;2022-12-29T01:36:11;0.80;99.90
29725;DHT22;16636;48.394;15.468;2022-12-29T01:38:38;0.80;99.90
29725;DHT22;16636;48.394;15.468;2022-12-29T01:41:05;0.80;99.90
29725;DHT22;16636;48.394;15.468;2022-12-29T01:43:46;0.80;99.90
29725;DHT22;16636;48.394;15.468;2022-12-29T01:46:42;0.80;99.90
29725;DHT22;16636;48.394;15.468;2022-12-29T01:49:23;0.80;99.90
29725;DHT22;16636;48.394;15.468;2022-12-29T01:51:53;0.80;99.90
29725;DHT22;16636;48.394;15.468;2022-12-29T01:54:26;0.80;99.90
29725;DHT22;16636;48.394;15.468;2022-12-29T01:56:55;0.80;99.90
29725;DHT22;16636;48.394;15.468;2022-12-29T01:59:28;0.80;99.90
29725;DHT22;16636;48.394;15.468;2022-12-29T02:01:55;0.80;99.90
29725;DHT22;16636;48.394;15.468;2022-12-29T02:04:24;0.80;99.90
29725;DHT22;16636;48.394;15.468;2022-12-29T02:06:57;0.80;99.90
29725;DHT22;16636;48.394;15.468;2022-12-29T02:09:24;0.80;99.90
29725;DHT22;16636;48.394;15.468;2022-12-29T02:11:51;0.80;99.90
29725;DHT22;16636;48.394;15.468;2022-12-29T02:14:18;0.80;99.90
29725;DHT22;16636;48.394;15.468;2022-12-29T02:30:37;0.90;99.90
29725;DHT22;16636;48.394;15.468;2022-12-29T02:36:50;0.80;99.90
29725;DHT22;16636;48.394;15.468;2022-12-29T02:45:44;0.70;99.90
29725;DHT22;16636;48.394;15.468;2022-12-29T02:48:06;0.70;99.90
29725;DHT22;16636;48.394;15.468;2022-12-29T02:50:43;0.70;99.90
29725;DHT22;16636;48.394;15.468;2022-12-29T02:53:16;0.70;99.90
29725;DHT22;16636;48.394;15.468;2022-12-29T02:56:03;0.70;99.90
29725;DHT22;16636;48.394;15.468;2022-12-29T02:58:30;0.80;99.90
29725;DHT22;16636;48.394;15.468;2022-12-29T03:01:14;0.80;99.90
29725;DHT22;16636;48.394;15.468;2022-12-29T03:04:19;0.80;99.90
29725;DHT22;16636;48.394;15.468;2022-12-29T03:06:54;0.80;99.90
29725;DHT22;16636;48.394;15.468;2022-12-29T03:15:03;0.80;99.90
29725;DHT22;16636;48.394;15.468;2022-12-29T03:17:56;0.80;99.90
29725;DHT22;16636;48.394;15.468;2022-12-29T03:20:40;0.70;99.90
29725;DHT22;16636;48.394;15.468;2022-12-29T03:23:08;0.60;99.90
29725;DHT22;16636;48.394;15.468;2022-12-29T03:25:40;0.60;99.90
29725;DHT22;16636;48.394;15.468;2022-12-29T03:28:13;0.50;99.90
29725;DHT22;16636;48.394;15.468;2022-12-29T03:30:45;0.50;99.90
29725;DHT22;16636;48.394;15.468;2022-12-29T03:33:19;0.60;99.90
29725;DHT22;16636;48.394;15.468;2022-12-29T03:35:49;0.60;99.90
29725;DHT22;16636;48.394;15.468;2022-12-29T03:38:23;0.60;99.90
29725;DHT22;16636;48.394;15.468;2022-12-29T03:40:57;0.60;99.90
29725;DHT22;16636;48.394;15.468;2022-12-29T03:43:27;0.60;99.90
29725;DHT22;16636;48.394;15.468;2022-12-29T03:45:54;0.60;99.90
29725;DHT22;16636;48.394;15.468;2022-12-29T03:48:20;0.50;99.90
29725;DHT22;16636;48.394;15.468;2022-12-29T03:50:48;0.50;99.90
29725;DHT22;16636;48.394;15.468;2022-12-29T03:53:15;0.60;99.90
29725;DHT22;16636;48.394;15.468;2022-12-29T03:55:41;0.60;99.90
29725;DHT22;16636;48.394;15.468;2022-12-29T03:58:09;0.60;99.90
29725;DHT22;16636;48.394;15.468;2022-12-29T04:00:54;0.60;99.90
29725;DHT22;16636;48.394;15.468;2022-12-29T04:03:20;0.50;99.90
29725;DHT22;16636;48.394;15.468;2022-12-29T04:05:46;0.50;99.90
29725;DHT22;16636;48.394;15.468;2022-12-29T04:08:12;0.60;99.90
29725;DHT22;16636;48.394;15.468;2022-12-29T04:10:38;0.60;99.90
29725;DHT22;16636;48.394;15.468;2022-12-29T04:13:05;0.60;99.90
29725;DHT22;16636;48.394;15.468;2022-12-29T04:15:31;0.60;99.90
29725;DHT22;16636;48.394;15.468;2022-12-29T04:17:57;0.60;99.90
29725;DHT22;16636;48.394;15.468;2022-12-29T04:20:24;0.60;99.90
29725;DHT22;16636;48.394;15.468;2022-12-29T04:23:09;0.60;99.90
29725;DHT22;16636;48.394;15.468;2022-12-29T04:25:36;0.60;99.90
29725;DHT22;16636;48.394;15.468;2022-12-29T04:28:03;0.60;99.90
29725;DHT22;16636;48.394;15.468;2022-12-29T04:30:38;0.60;99.90
29725;DHT22;16636;48.394;15.468;2022-12-29T04:33:22;0.60;99.90
29725;DHT22;16636;48.394;15.468;2022-12-29T04:35:49;0.60;99.90
29725;DHT22;16636;48.394;15.468;2022-12-29T04:38:16;0.70;99.90
29725;DHT22;16636;48.394;15.468;2022-12-29T04:40:43;0.70;99.90
29725;DHT22;16636;48.394;15.468;2022-12-29T04:43:10;0.70;99.90
29725;DHT22;16636;48.394;15.468;2022-12-29T04:45:56;0.60;99.90
29725;DHT22;16636;48.394;15.468;2022-12-29T04:48:27;0.70;99.90
29725;DHT22;16636;48.394;15.468;2022-12-29T04:51:12;0.70;99.90
29725;DHT22;16636;48.394;15.468;2022-12-29T04:53:39;0.70;99.90
29725;DHT22;16636;48.394;15.468;2022-12-29T04:56:05;0.70;99.90
29725;DHT22;16636;48.394;15.468;2022-12-29T04:58:32;0.80;99.90
29725;DHT22;16636;48.394;15.468;2022-12-29T05:00:59;0.80;99.90
29725;DHT22;16636;48.394;15.468;2022-12-29T05:03:28;0.70;99.90
29725;DHT22;16636;48.394;15.468;2022-12-29T05:05:55;0.70;99.90
29725;DHT22;16636;48.394;15.468;2022-12-29T05:08:22;0.80;99.90
29725;DHT22;16636;48.394;15.468;2022-12-29T05:10:50;0.70;99.90
29725;DHT22;16636;48.394;15.468;2022-12-29T05:13:17;0.70;99.90
29725;DHT22;16636;48.394;15.468;2022-12-29T05:15:51;0.80;99.90
29725;DHT22;16636;48.394;15.468;2022-12-29T05:18:18;0.80;99.90
29725;DHT22;16636;48.394;15.468;2022-12-29T05:20:45;0.80;99.90
29725;DHT22;16636;48.394;15.468;2022-12-29T05:23:12;0.80;99.90
29725;DHT22;16636;48.394;15.468;2022-12-29T05:25:39;0.80;99.90
29725;DHT22;16636;48.394;15.468;2022-12-29T05:28:15;0.80;99.90
29725;DHT22;16636;48.394;15.468;2022-12-29T05:30:50;0.80;99.90
29725;DHT22;16636;48.394;15.468;2022-12-29T05:33:18;0.80;99.90
29725;DHT22;16636;48.394;15.468;2022-12-29T05:35:45;0.80;99.90
29725;DHT22;16636;48.394;15.468;2022-12-29T05:38:12;0.70;99.90
29725;DHT22;16636;48.394;15.468;2022-12-29T05:40:39;0.70;99.90
29725;DHT22;16636;48.394;15.468;2022-12-29T05:43:15;0.80;99.90
29725;DHT22;16636;48.394;15.468;2022-12-29T05:46:06;0.80;99.90
29725;DHT22;16636;48.394;15.468;2022-12-29T05:48:45;0.70;99.90
29725;DHT22;16636;48.394;15.468;2022-12-29T05:51:25;0.80;99.90
29725;DHT22;16636;48.394;15.468;2022-12-29T05:53:55;0.70;99.90
29725;DHT22;16636;48.394;15.468;2022-12-29T05:56:22;0.70;99.90
29725;DHT22;16636;48.394;15.468;2022-12-29T05:58:56;0.70;99.90
29725;DHT22;16636;48.394;15.468;2022-12-29T06:01:22;0.70;99.90
29725;DHT22;16636;48.394;15.468;2022-12-29T06:03:49;0.80;99.90
29725;DHT22;16636;48.394;15.468;2022-12-29T06:06:17;0.70;99.90
29725;DHT22;16636;48.394;15.468;2022-12-29T06:08:43;0.70;99.90
29725;DHT22;16636;48.394;15.468;2022-12-29T06:11:09;0.70;99.90
29725;DHT22;16636;48.394;15.468;2022-12-29T06:13:36;0.70;99.90
29725;DHT22;16636;48.394;15.468;2022-12-29T06:16:02;0.80;99.90
29725;DHT22;16636;48.394;15.468;2022-12-29T06:18:30;0.70;99.90
29725;DHT22;16636;48.394;15.468;2022-12-29T06:21:01;0.80;99.90
29725;DHT22;16636;48.394;15.468;2022-12-29T06:23:28;0.80;99.90
29725;DHT22;16636;48.394;15.468;2022-12-29T06:25:54;0.70;99.90
29725;DHT22;16636;48.394;15.468;2022-12-29T06:28:21;0.70;99.90
29725;DHT22;16636;48.394;15.468;2022-12-29T06:31:00;0.70;99.90
29725;DHT22;16636;48.394;15.468;2022-12-29T06:33:30;0.70;99.90
29725;DHT22;16636;48.394;15.468;2022-12-29T06:35:59;0.70;99.90
29725;DHT22;16636;48.394;15.468;2022-12-29T06:38:28;0.70;99.90
29725;DHT22;16636;48.394;15.468;2022-12-29T06:40:54;0.70;99.90
29725;DHT22;16636;48.394;15.468;2022-12-29T06:43:39;0.70;99.90
29725;DHT22;16636;48.394;15.468;2022-12-29T06:46:18;0.70;99.90
29725;DHT22;16636;48.394;15.468;2022-12-29T06:48:44;0.70;99.90
29725;DHT22;16636;48.394;15.468;2022-12-29T06:51:10;0.70;99.90
29725;DHT22;16636;48.394;15.468;2022-12-29T06:53:36;0.70;99.90
29725;DHT22;16636;48.394;15.468;2022-12-29T06:56:02;0.60;99.90
29725;DHT22;16636;48.394;15.468;2022-12-29T06:58:28;0.60;99.90
29725;DHT22;16636;48.394;15.468;2022-12-29T07:00:54;0.70;99.90
29725;DHT22;16636;48.394;15.468;2022-12-29T07:03:20;0.70;99.90
29725;DHT22;16636;48.394;15.468;2022-12-29T07:05:46;0.70;99.90
29725;DHT22;16636;48.394;15.468;2022-12-29T07:08:13;0.70;99.90
29725;DHT22;16636;48.394;15.468;2022-12-29T07:10:39;0.70;99.90
29725;DHT22;16636;48.394;15.468;2022-12-29T07:13:06;0.70;99.90
29725;DHT22;16636;48.394;15.468;2022-12-29T07:15:34;0.70;99.90
29725;DHT22;16636;48.394;15.468;2022-12-29T07:18:00;0.70;99.90
29725;DHT22;16636;48.394;15.468;2022-12-29T07:20:26;0.70;99.90
29725;DHT22;16636;48.394;15.468;2022-12-29T07:22:52;0.70;99.90
29725;DHT22;16636;48.394;15.468;2022-12-29T07:25:18;0.70;99.90
29725;DHT22;16636;48.394;15.468;2022-12-29T07:27:44;0.70;99.90
29725;DHT22;16636;48.394;15.468;2022-12-29T07:30:11;0.70;99.90
29725;DHT22;16636;48.394;15.468;2022-12-29T07:32:37;0.60;99.90
29725;DHT22;16636;48.394;15.468;2022-12-29T07:35:03;0.60;99.90
29725;DHT22;16636;48.394;15.468;2022-12-29T07:37:29;0.70;99.90
29725;DHT22;16636;48.394;15.468;2022-12-29T07:39:55;0.60;99.90
29725;DHT22;16636;48.394;15.468;2022-12-29T07:42:21;0.60;99.90
29725;DHT22;16636;48.394;15.468;2022-12-29T07:44:51;0.60;99.90
29725;DHT22;16636;48.394;15.468;2022-12-29T07:47:32;0.60;99.90
29725;DHT22;16636;48.394;15.468;2022-12-29T07:49:59;0.60;99.90
29725;DHT22;16636;48.394;15.468;2022-12-29T07:52:25;0.60;99.90
29725;DHT22;16636;48.394;15.468;2022-12-29T07:54:51;0.60;99.90
29725;DHT22;16636;48.394;15.468;2022-12-29T07:57:17;0.50;99.90
29725;DHT22;16636;48.394;15.468;2022-12-29T07:59:43;0.60;99.90
29725;DHT22;16636;48.394;15.468;2022-12-29T08:02:12;0.50;99.90
29725;DHT22;16636;48.394;15.468;2022-12-29T08:04:38;0.50;99.90
29725;DHT22;16636;48.394;15.468;2022-12-29T08:07:04;0.50;99.90
29725;DHT22;16636;48.394;15.468;2022-12-29T08:09:30;0.60;99.90
29725;DHT22;16636;48.394;15.468;2022-12-29T08:11:56;0.60;99.90
29725;DHT22;16636;48.394;15.468;2022-12-29T08:14:22;0.60;99.90
29725;DHT22;16636;48.394;15.468;2022-12-29T08:16:48;0.60;99.90
29725;DHT22;16636;48.394;15.468;2022-12-29T08:19:14;0.60;99.90
29725;DHT22;16636;48.394;15.468;2022-12-29T08:21:40;0.60;99.90
29725;DHT22;16636;48.394;15.468;2022-12-29T08:24:08;0.70;99.90
29725;DHT22;16636;48.394;15.468;2022-12-29T08:26:34;0.70;99.90
29725;DHT22;16636;48.394;15.468;2022-12-29T08:29:00;0.70;99.90
29725;DHT22;16636;48.394;15.468;2022-12-29T08:31:26;0.70;99.90
29725;DHT22;16636;48.394;15.468;2022-12-29T08:33:55;0.80;99.90
29725;DHT22;16636;48.394;15.468;2022-12-29T08:36:21;0.80;99.90
29725;DHT22;16636;48.394;15.468;2022-12-29T08:38:47;0.80;99.90
29725;DHT22;16636;48.394;15.468;2022-12-29T08:41:13;0.80;99.90
29725;DHT22;16636;48.394;15.468;2022-12-29T08:43:39;0.90;99.90
29725;DHT22;16636;48.394;15.468;2022-12-29T08:46:05;0.90;99.90
29725;DHT22;16636;48.394;15.468;2022-12-29T08:48:31;0.90;99.90
29725;DHT22;16636;48.394;15.468;2022-12-29T08:50:57;0.90;99.90
29725;DHT22;16636;48.394;15.468;2022-12-29T08:53:23;0.90;99.90
29725;DHT22;16636;48.394;15.468;2022-12-29T08:55:57;0.90;99.90
29725;DHT22;16636;48.394;15.468;2022-12-29T08:58:23;0.90;99.90
29725;DHT22;16636;48.394;15.468;2022-12-29T09:00:52;1.00;99.90
29725;DHT22;16636;48.394;15.468;2022-12-29T09:03:19;1.00;99.90
29725;DHT22;16636;48.394;15.468;2022-12-29T09:06:05;1.00;99.90
29725;DHT22;16636;48.394;15.468;2022-12-29T09:08:32;1.00;99.90
29725;DHT22;16636;48.394;15.468;2022-12-29T09:11:23;1.00;99.90
29725;DHT22;16636;48.394;15.468;2022-12-29T09:17:37;0.90;99.90
29725;DHT22;16636;48.394;15.468;2022-12-29T09:20:07;0.90;99.90
29725;DHT22;16636;48.394;15.468;2022-12-29T09:22:36;1.00;99.90
29725;DHT22;16636;48.394;15.468;2022-12-29T09:25:13;0.90;99.90
29725;DHT22;16636;48.394;15.468;2022-12-29T09:28:02;0.90;99.90
29725;DHT22;16636;48.394;15.468;2022-12-29T09:30:33;0.90;99.90
29725;DHT22;16636;48.394;15.468;2022-12-29T09:32:59;0.90;99.90
29725;DHT22;16636;48.394;15.468;2022-12-29T09:35:25;0.90;99.90
29725;DHT22;16636;48.394;15.468;2022-12-29T09:37:51;0.90;99.90
29725;DHT22;16636;48.394;15.468;2022-12-29T09:40:30;0.90;99.90
29725;DHT22;16636;48.394;15.468;2022-12-29T09:43:23;0.80;99.90
29725;DHT22;16636;48.394;15.468;2022-12-29T09:45:58;0.90;99.90
29725;DHT22;16636;48.394;15.468;2022-12-29T09:48:37;0.80;99.90
29725;DHT22;16636;48.394;15.468;2022-12-29T09:51:10;0.90;99.90
29725;DHT22;16636;48.394;15.468;2022-12-29T09:53:44;0.90;99.90
29725;DHT22;16636;48.394;15.468;2022-12-29T09:56:17;0.90;99.90
29725;DHT22;16636;48.394;15.468;2022-12-29T09:58:52;0.80;99.90
29725;DHT22;16636;48.394;15.468;2022-12-29T10:01:32;0.80;99.90
29725;DHT22;16636;48.394;15.468;2022-12-29T10:04:02;0.90;99.90
29725;DHT22;16636;48.394;15.468;2022-12-29T10:06:57;0.90;99.90
29725;DHT22;16636;48.394;15.468;2022-12-29T10:09:39;0.80;99.90
29725;DHT22;16636;48.394;15.468;2022-12-29T10:12:31;0.90;99.90
29725;DHT22;16636;48.394;15.468;2022-12-29T10:18:55;0.90;99.90
29725;DHT22;16636;48.394;15.468;2022-12-29T10:21:08;0.90;99.90
29725;DHT22;16636;48.394;15.468;2022-12-29T10:23:44;1.00;99.90
29725;DHT22;16636;48.394;15.468;2022-12-29T10:26:15;1.00;99.90
29725;DHT22;16636;48.394;15.468;2022-12-29T10:28:46;1.10;99.90
29725;DHT22;16636;48.394;15.468;2022-12-29T10:31:23;1.10;99.90
29725;DHT22;16636;48.394;15.468;2022-12-29T10:33:59;1.10;99.90
29725;DHT22;16636;48.394;15.468;2022-12-29T10:36:34;1.10;99.90
29725;DHT22;16636;48.394;15.468;2022-12-29T10:42:56;1.10;99.90
29725;DHT22;16636;48.394;15.468;2022-12-29T10:45:04;1.20;99.90
29725;DHT22;16636;48.394;15.468;2022-12-29T10:47:35;1.20;99.90
29725;DHT22;16636;48.394;15.468;2022-12-29T10:50:04;1.30;99.90
29725;DHT22;16636;48.394;15.468;2022-12-29T10:52:33;1.30;99.90
29725;DHT22;16636;48.394;15.468;2022-12-29T10:55:03;1.30;99.90
29725;DHT22;16636;48.394;15.468;2022-12-29T10:57:45;1.30;99.90
29725;DHT22;16636;48.394;15.468;2022-12-29T11:00:21;1.30;99.90
29725;DHT22;16636;48.394;15.468;2022-12-29T11:08:18;1.30;99.90
29725;DHT22;16636;48.394;15.468;2022-12-29T11:10:45;1.30;99.90
29725;DHT22;16636;48.394;15.468;2022-12-29T11:13:17;1.30;99.90
29725;DHT22;16636;48.394;15.468;2022-12-29T11:15:46;1.30;99.90
29725;DHT22;16636;48.394;15.468;2022-12-29T11:18:32;1.40;99.90
29725;DHT22;16636;48.394;15.468;2022-12-29T11:21:01;1.40;99.90
29725;DHT22;16636;48.394;15.468;2022-12-29T11:23:37;1.40;99.90
29725;DHT22;16636;48.394;15.468;2022-12-29T11:26:23;1.40;99.90
29725;DHT22;16636;48.394;15.468;2022-12-29T11:29:20;1.50;99.90
29725;DHT22;16636;48.394;15.468;2022-12-29T11:31:57;1.50;99.90
29725;DHT22;16636;48.394;15.468;2022-12-29T11:34:33;1.50;99.90
29725;DHT22;16636;48.394;15.468;2022-12-29T11:37:04;1.60;99.90
29725;DHT22;16636;48.394;15.468;2022-12-29T11:39:43;1.60;99.90
29725;DHT22;16636;48.394;15.468;2022-12-29T11:42:17;1.60;99.90
29725;DHT22;16636;48.394;15.468;2022-12-29T11:44:49;1.60;99.90
29725;DHT22;16636;48.394;15.468;2022-12-29T11:47:29;1.70;99.90
29725;DHT22;16636;48.394;15.468;2022-12-29T11:50:00;1.80;99.90
29725;DHT22;16636;48.394;15.468;2022-12-29T11:52:29;2.00;99.90
29725;DHT22;16636;48.394;15.468;2022-12-29T11:55:00;2.10;99.90
29725;DHT22;16636;48.394;15.468;2022-12-29T11:57:27;2.20;99.90
29725;DHT22;16636;48.394;15.468;2022-12-29T11:59:55;2.20;99.90
29725;DHT22;16636;48.394;15.468;2022-12-29T12:02:36;2.10;99.90
29725;DHT22;16636;48.394;15.468;2022-12-29T12:17:26;2.10;99.90
29725;DHT22;16636;48.394;15.468;2022-12-29T12:20:18;2.20;99.90
29725;DHT22;16636;48.394;15.468;2022-12-29T12:28:58;2.40;99.90
29725;DHT22;16636;48.394;15.468;2022-12-29T12:34:16;2.30;99.90
29725;DHT22;16636;48.394;15.468;2022-12-29T12:36:55;2.30;99.90
29725;DHT22;16636;48.394;15.468;2022-12-29T12:39:26;2.30;99.90
29725;DHT22;16636;48.394;15.468;2022-12-29T12:48:28;2.40;99.90
29725;DHT22;16636;48.394;15.468;2022-12-29T12:50:52;2.40;99.90
29725;DHT22;16636;48.394;15.468;2022-12-29T13:00:18;2.40;99.90
29725;DHT22;16636;48.394;15.468;2022-12-29T13:19:45;3.80;99.90
29725;DHT22;16636;48.394;15.468;2022-12-29T13:22:28;3.90;99.90
29725;DHT22;16636;48.394;15.468;2022-12-29T13:30:43;3.90;99.90
29725;DHT22;16636;48.394;15.468;2022-12-29T13:33:20;3.80;99.90
29725;DHT22;16636;48.394;15.468;2022-12-29T13:36:13;3.80;99.90
29725;DHT22;16636;48.394;15.468;2022-12-29T13:38:45;3.70;99.90
29725;DHT22;16636;48.394;15.468;2022-12-29T13:41:32;3.60;99.90
29725;DHT22;16636;48.394;15.468;2022-12-29T13:44:02;3.50;99.90
29725;DHT22;16636;48.394;15.468;2022-12-29T13:46:37;3.40;99.90
29725;DHT22;16636;48.394;15.468;2022-12-29T13:51:50;3.30;99.90
29725;DHT22;16636;48.394;15.468;2022-12-29T13:57:33;3.20;99.90
29725;DHT22;16636;48.394;15.468;2022-12-29T14:00:21;3.20;99.90
29725;DHT22;16636;48.394;15.468;2022-12-29T14:05:45;3.20;99.90
29725;DHT22;16636;48.394;15.468;2022-12-29T14:08:34;3.20;99.90
29725;DHT22;16636;48.394;15.468;2022-12-29T14:11:14;3.20;99.90
29725;DHT22;16636;48.394;15.468;2022-12-29T14:13:43;3.20;99.90
29725;DHT22;16636;48.394;15.468;2022-12-29T14:16:24;3.10;99.90
29725;DHT22;16636;48.394;15.468;2022-12-29T14:18:51;3.10;99.90
29725;DHT22;16636;48.394;15.468;2022-12-29T14:21:22;3.10;99.90
29725;DHT22;16636;48.394;15.468;2022-12-29T14:23:51;3.10;99.90
29725;DHT22;16636;48.394;15.468;2022-12-29T14:29:16;3.10;99.90
29725;DHT22;16636;48.394;15.468;2022-12-29T14:32:01;3.10;99.90
29725;DHT22;16636;48.394;15.468;2022-12-29T14:34:29;3.10;99.90
29725;DHT22;16636;48.394;15.468;2022-12-29T14:37:01;3.10;99.90
29725;DHT22;16636;48.394;15.468;2022-12-29T14:39:43;3.10;99.90
29725;DHT22;16636;48.394;15.468;2022-12-29T14:47:33;3.00;99.90
29725;DHT22;16636;48.394;15.468;2022-12-29T14:52:59;2.90;99.90
29725;DHT22;16636;48.394;15.468;2022-12-29T14:55:42;2.90;99.90
29725;DHT22;16636;48.394;15.468;2022-12-29T14:58:31;2.90;99.90
29725;DHT22;16636;48.394;15.468;2022-12-29T15:01:01;2.80;99.90
29725;DHT22;16636;48.394;15.468;2022-12-29T15:03:33;2.80;99.90
29725;DHT22;16636;48.394;15.468;2022-12-29T15:06:07;2.80;99.90
29725;DHT22;16636;48.394;15.468;2022-12-29T15:08:42;2.80;99.90
29725;DHT22;16636;48.394;15.468;2022-12-29T15:11:17;2.80;99.90
29725;DHT22;16636;48.394;15.468;2022-12-29T15:13:44;2.80;99.90
29725;DHT22;16636;48.394;15.468;2022-12-29T15:16:44;2.70;99.90
29725;DHT22;16636;48.394;15.468;2022-12-29T15:19:23;2.70;99.90
29725;DHT22;16636;48.394;15.468;2022-12-29T15:21:50;2.70;99.90
29725;DHT22;16636;48.394;15.468;2022-12-29T15:24:19;2.70;99.90
29725;DHT22;16636;48.394;15.468;2022-12-29T15:26:53;2.70;99.90
29725;DHT22;16636;48.394;15.468;2022-12-29T15:34:49;2.60;99.90
29725;DHT22;16636;48.394;15.468;2022-12-29T15:39:49;2.70;99.90
29725;DHT22;16636;48.394;15.468;2022-12-29T15:45:04;2.70;99.90
29725;DHT22;16636;48.394;15.468;2022-12-29T15:47:30;2.60;99.90
29725;DHT22;16636;48.394;15.468;2022-12-29T15:52:46;2.60;99.90
29725;DHT22;16636;48.394;15.468;2022-12-29T15:55:20;2.60;99.90
29725;DHT22;16636;48.394;15.468;2022-12-29T15:57:47;2.60;99.90
29725;DHT22;16636;48.394;15.468;2022-12-29T16:00:30;2.60;99.90
29725;DHT22;16636;48.394;15.468;2022-12-29T16:02:59;2.60;99.90
29725;DHT22;16636;48.394;15.468;2022-12-29T16:05:35;2.60;99.90
29725;DHT22;16636;48.394;15.468;2022-12-29T16:08:03;2.60;99.90
29725;DHT22;16636;48.394;15.468;2022-12-29T16:10:40;2.60;99.90
29725;DHT22;16636;48.394;15.468;2022-12-29T16:13:26;2.60;99.90
29725;DHT22;16636;48.394;15.468;2022-12-29T16:16:01;2.60;99.90
29725;DHT22;16636;48.394;15.468;2022-12-29T16:18:36;2.60;99.90
29725;DHT22;16636;48.394;15.468;2022-12-29T16:21:05;2.60;99.90
29725;DHT22;16636;48.394;15.468;2022-12-29T16:23:40;2.60;99.90
29725;DHT22;16636;48.394;15.468;2022-12-29T16:26:19;2.60;99.90
29725;DHT22;16636;48.394;15.468;2022-12-29T16:28:48;2.60;99.90
29725;DHT22;16636;48.394;15.468;2022-12-29T16:33:52;2.60;99.90
29725;DHT22;16636;48.394;15.468;2022-12-29T16:36:23;2.60;99.90
29725;DHT22;16636;48.394;15.468;2022-12-29T16:38:49;2.60;99.90
29725;DHT22;16636;48.394;15.468;2022-12-29T16:41:31;2.60;99.90
29725;DHT22;16636;48.394;15.468;2022-12-29T16:44:17;2.60;99.90
29725;DHT22;16636;48.394;15.468;2022-12-29T16:47:02;2.60;99.90
29725;DHT22;16636;48.394;15.468;2022-12-29T16:49:28;2.60;99.90
29725;DHT22;16636;48.394;15.468;2022-12-29T16:51:55;2.50;99.90
29725;DHT22;16636;48.394;15.468;2022-12-29T16:54:25;2.60;99.90
29725;DHT22;16636;48.394;15.468;2022-12-29T16:56:53;2.60;99.90
29725;DHT22;16636;48.394;15.468;2022-12-29T16:59:32;2.50;99.90
29725;DHT22;16636;48.394;15.468;2022-12-29T17:01:59;2.60;99.90
29725;DHT22;16636;48.394;15.468;2022-12-29T17:04:26;2.60;99.90
29725;DHT22;16636;48.394;15.468;2022-12-29T17:06:54;2.50;99.90
29725;DHT22;16636;48.394;15.468;2022-12-29T17:09:22;2.50;99.90
29725;DHT22;16636;48.394;15.468;2022-12-29T17:11:51;2.50;99.90
29725;DHT22;16636;48.394;15.468;2022-12-29T17:14:37;2.50;99.90
29725;DHT22;16636;48.394;15.468;2022-12-29T17:17:11;2.50;99.90
29725;DHT22;16636;48.394;15.468;2022-12-29T17:19:38;2.50;99.90
29725;DHT22;16636;48.394;15.468;2022-12-29T17:22:22;2.50;99.90
29725;DHT22;16636;48.394;15.468;2022-12-29T17:24:51;2.50;99.90
29725;DHT22;16636;48.394;15.468;2022-12-29T17:27:27;2.50;99.90
29725;DHT22;16636;48.394;15.468;2022-12-29T17:29:57;2.50;99.90
29725;DHT22;16636;48.394;15.468;2022-12-29T17:32:24;2.40;99.90
29725;DHT22;16636;48.394;15.468;2022-12-29T17:34:50;2.40;99.90
29725;DHT22;16636;48.394;15.468;2022-12-29T17:37:36;2.40;99.90
29725;DHT22;16636;48.394;15.468;2022-12-29T17:40:04;2.40;99.90
29725;DHT22;16636;48.394;15.468;2022-12-29T17:42:31;2.40;99.90
29725;DHT22;16636;48.394;15.468;2022-12-29T17:45:00;2.40;99.90
29725;DHT22;16636;48.394;15.468;2022-12-29T17:47:25;2.40;99.90
29725;DHT22;16636;48.394;15.468;2022-12-29T17:49:51;2.30;99.90
29725;DHT22;16636;48.394;15.468;2022-12-29T17:52:18;2.30;99.90
29725;DHT22;16636;48.394;15.468;2022-12-29T17:54:52;2.30;99.90
29725;DHT22;16636;48.394;15.468;2022-12-29T17:57:19;2.30;99.90
29725;DHT22;16636;48.394;15.468;2022-12-29T17:59:45;2.30;99.90
29725;DHT22;16636;48.394;15.468;2022-12-29T18:04:49;2.20;99.90
29725;DHT22;16636;48.394;15.468;2022-12-29T18:07:15;2.20;99.90
29725;DHT22;16636;48.394;15.468;2022-12-29T18:09:41;2.20;99.90
29725;DHT22;16636;48.394;15.468;2022-12-29T18:12:40;2.20;99.90
29725;DHT22;16636;48.394;15.468;2022-12-29T18:15:20;2.20;99.90
29725;DHT22;16636;48.394;15.468;2022-12-29T18:17:47;2.10;99.90
29725;DHT22;16636;48.394;15.468;2022-12-29T18:20:14;2.10;99.90
29725;DHT22;16636;48.394;15.468;2022-12-29T18:22:40;2.10;99.90
29725;DHT22;16636;48.394;15.468;2022-12-29T18:25:35;2.10;99.90